sensor_id;sensor_type;location;lat;lon;timestamp;pressure;altitude;pressure_sealevel;temperature;humidity
35551;BME280;21655;46.056;13.616;2023-03-23T00:01:28;100360.31;;;9.14;100.00
35551;BME280;21655;46.056;13.616;2023-03-23T00:03:58;100365.19;;;9.20;100.00
35551;BME280;21655;46.056;13.616;2023-03-23T00:06:27;100367.41;;;9.17;100.00
35551;BME280;21655;46.056;13.616;2023-03-23T00:08:58;100369.66;;;9.05;100.00
35551;BME280;21655;46.056;13.616;2023-03-23T00:11:27;100367.03;;;8.96;100.00
35551;BME280;21655;46.056;13.616;2023-03-23T00:13:55;100365.69;;;9.08;100.00
35551;BME280;21655;46.056;13.616;2023-03-23T00:16:24;100358.06;;;9.02;100.00
35551;BME280;21655;46.056;13.616;2023-03-23T00:19:12;100356.81;;;8.96;100.00
35551;BME280;21655;46.056;13.616;2023-03-23T00:21:39;100358.41;;;8.91;100.00
35551;BME280;21655;46.056;13.616;2023-03-23T00:24:18;100357.84;;;8.79;100.00
35551;BME280;21655;46.056;13.616;2023-03-23T00:26:45;100352.69;;;8.84;100.00
35551;BME280;21655;46.056;13.616;2023-03-23T00:29:22;100358.75;;;8.96;100.00
35551;BME280;21655;46.056;13.616;2023-03-23T00:31:48;100355.44;;;8.92;100.00
35551;BME280;21655;46.056;13.616;2023-03-23T00:34:17;100356.13;;;8.86;100.00
35551;BME280;21655;46.056;13.616;2023-03-23T00:36:46;100361.63;;;8.70;100.00
35551;BME280;21655;46.056;13.616;2023-03-23T00:39:12;100359.50;;;8.56;100.00
35551;BME280;21655;46.056;13.616;2023-03-23T00:41:37;100359.66;;;8.55;100.00
35551;BME280;21655;46.056;13.616;2023-03-23T00:44:04;100363.47;;;8.54;100.00
35551;BME280;21655;46.056;13.616;2023-03-23T00:46:29;100358.63;;;8.56;100.00
35551;BME280;21655;46.056;13.616;2023-03-23T00:48:56;100361.56;;;8.54;100.00
35551;BME280;21655;46.056;13.616;2023-03-23T00:51:22;100347.75;;;8.54;100.00
35551;BME280;21655;46.056;13.616;2023-03-23T00:53:48;100347.81;;;8.70;100.00
35551;BME280;21655;46.056;13.616;2023-03-23T00:56:14;100346.09;;;8.69;100.00
35551;BME280;21655;46.056;13.616;2023-03-23T00:58:39;100345.19;;;8.61;100.00
35551;BME280;21655;46.056;13.616;2023-03-23T01:01:05;100343.59;;;8.50;100.00
35551;BME280;21655;46.056;13.616;2023-03-23T01:03:31;100350.69;;;8.53;100.00
35551;BME280;21655;46.056;13.616;2023-03-23T01:05:57;100345.84;;;8.47;100.00
35551;BME280;21655;46.056;13.616;2023-03-23T01:08:23;100349.59;;;8.38;100.00
35551;BME280;21655;46.056;13.616;2023-03-23T01:10:50;100344.88;;;8.30;100.00
35551;BME280;21655;46.056;13.616;2023-03-23T01:13:16;100342.88;;;8.40;100.00
35551;BME280;21655;46.056;13.616;2023-03-23T01:15:42;100344.25;;;8.44;100.00
35551;BME280;21655;46.056;13.616;2023-03-23T01:18:09;100336.66;;;8.46;100.00
35551;BME280;21655;46.056;13.616;2023-03-23T01:20:36;100338.44;;;8.63;100.00
35551;BME280;21655;46.056;13.616;2023-03-23T01:23:02;100334.28;;;8.59;100.00
35551;BME280;21655;46.056;13.616;2023-03-23T01:25:30;100330.16;;;8.55;100.00
35551;BME280;21655;46.056;13.616;2023-03-23T01:27:56;100330.16;;;8.55;100.00
35551;BME280;21655;46.056;13.616;2023-03-23T01:30:22;100324.56;;;8.47;100.00
35551;BME280;21655;46.056;13.616;2023-03-23T01:32:48;100323.34;;;8.34;100.00
35551;BME280;21655;46.056;13.616;2023-03-23T01:35:13;100324.50;;;8.23;100.00
35551;BME280;21655;46.056;13.616;2023-03-23T01:37:39;100320.72;;;8.24;100.00
35551;BME280;21655;46.056;13.616;2023-03-23T01:40:05;100316.38;;;8.22;100.00
35551;BME280;21655;46.056;13.616;2023-03-23T01:42:34;100318.66;;;8.26;100.00
35551;BME280;21655;46.056;13.616;2023-03-23T01:47:47;100317.41;;;8.21;100.00
35551;BME280;21655;46.056;13.616;2023-03-23T01:50:16;100311.03;;;8.20;100.00
35551;BME280;21655;46.056;13.616;2023-03-23T01:52:42;100307.69;;;8.17;100.00
35551;BME280;21655;46.056;13.616;2023-03-23T01:55:08;100305.94;;;8.08;100.00
35551;BME280;21655;46.056;13.616;2023-03-23T01:57:34;100308.72;;;8.08;100.00
35551;BME280;21655;46.056;13.616;2023-03-23T02:00:04;100307.50;;;8.10;100.00
35551;BME280;21655;46.056;13.616;2023-03-23T02:02:44;100309.34;;;8.02;100.00
35551;BME280;21655;46.056;13.616;2023-03-23T02:05:15;100298.97;;;7.96;100.00
35551;BME280;21655;46.056;13.616;2023-03-23T02:07:45;100302.09;;;7.93;100.00
35551;BME280;21655;46.056;13.616;2023-03-23T02:10:11;100303.06;;;7.84;100.00
35551;BME280;21655;46.056;13.616;2023-03-23T02:12:37;100299.97;;;7.87;100.00
35551;BME280;21655;46.056;13.616;2023-03-23T02:15:03;100292.38;;;7.89;100.00
35551;BME280;21655;46.056;13.616;2023-03-23T02:17:48;100295.34;;;7.95;100.00
35551;BME280;21655;46.056;13.616;2023-03-23T02:20:33;100293.25;;;7.89;100.00
35551;BME280;21655;46.056;13.616;2023-03-23T02:39:29;100301.56;;;7.64;100.00
35551;BME280;21655;46.056;13.616;2023-03-23T02:42:21;100304.47;;;7.62;100.00
35551;BME280;21655;46.056;13.616;2023-03-23T02:44:50;100302.00;;;7.77;100.00
35551;BME280;21655;46.056;13.616;2023-03-23T02:47:22;100300.75;;;7.71;100.00
35551;BME280;21655;46.056;13.616;2023-03-23T02:49:52;100295.34;;;7.62;100.00
35551;BME280;21655;46.056;13.616;2023-03-23T02:52:22;100295.88;;;7.65;100.00
35551;BME280;21655;46.056;13.616;2023-03-23T02:54:50;100298.53;;;7.75;100.00
35551;BME280;21655;46.056;13.616;2023-03-23T02:57:17;100293.09;;;7.65;100.00
35551;BME280;21655;46.056;13.616;2023-03-23T02:59:42;100296.06;;;7.64;100.00
35551;BME280;21655;46.056;13.616;2023-03-23T03:02:26;100298.25;;;7.60;100.00
35551;BME280;21655;46.056;13.616;2023-03-23T03:10:15;100302.75;;;7.61;100.00
35551;BME280;21655;46.056;13.616;2023-03-23T03:13:01;100297.94;;;7.63;100.00
35551;BME280;21655;46.056;13.616;2023-03-23T03:15:33;100298.03;;;7.54;100.00
35551;BME280;21655;46.056;13.616;2023-03-23T03:20:40;100302.13;;;7.42;100.00
35551;BME280;21655;46.056;13.616;2023-03-23T03:23:07;100296.88;;;7.31;100.00
35551;BME280;21655;46.056;13.616;2023-03-23T03:25:38;100307.81;;;7.23;100.00
35551;BME280;21655;46.056;13.616;2023-03-23T03:28:06;100312.25;;;7.16;100.00
35551;BME280;21655;46.056;13.616;2023-03-23T03:30:35;100300.97;;;7.27;100.00
35551;BME280;21655;46.056;13.616;2023-03-23T03:33:02;100299.72;;;7.22;100.00
35551;BME280;21655;46.056;13.616;2023-03-23T03:35:29;100295.84;;;7.32;100.00
35551;BME280;21655;46.056;13.616;2023-03-23T03:37:57;100306.28;;;7.46;100.00
35551;BME280;21655;46.056;13.616;2023-03-23T03:40:29;100305.19;;;7.39;100.00
35551;BME280;21655;46.056;13.616;2023-03-23T03:42:54;100303.09;;;7.33;100.00
35551;BME280;21655;46.056;13.616;2023-03-23T03:45:20;100301.69;;;7.29;100.00
35551;BME280;21655;46.056;13.616;2023-03-23T03:47:46;100296.78;;;7.23;100.00
35551;BME280;21655;46.056;13.616;2023-03-23T03:50:11;100307.22;;;7.12;100.00
35551;BME280;21655;46.056;13.616;2023-03-23T03:52:38;100307.78;;;7.15;100.00
35551;BME280;21655;46.056;13.616;2023-03-23T03:55:04;100306.03;;;7.14;100.00
35551;BME280;21655;46.056;13.616;2023-03-23T03:57:30;100306.19;;;7.13;100.00
35551;BME280;21655;46.056;13.616;2023-03-23T03:59:56;100299.25;;;7.26;100.00
35551;BME280;21655;46.056;13.616;2023-03-23T04:02:21;100308.97;;;7.38;100.00
35551;BME280;21655;46.056;13.616;2023-03-23T04:04:48;100303.69;;;7.44;100.00
35551;BME280;21655;46.056;13.616;2023-03-23T04:07:14;100309.75;;;7.48;100.00
35551;BME280;21655;46.056;13.616;2023-03-23T04:09:42;100308.97;;;7.38;100.00
35551;BME280;21655;46.056;13.616;2023-03-23T04:12:08;100320.56;;;7.24;100.00
35551;BME280;21655;46.056;13.616;2023-03-23T04:14:34;100317.63;;;7.18;100.00
35551;BME280;21655;46.056;13.616;2023-03-23T04:16:59;100314.63;;;6.94;100.00
35551;BME280;21655;46.056;13.616;2023-03-23T04:19:25;100315.09;;;6.89;100.00
35551;BME280;21655;46.056;13.616;2023-03-23T04:21:54;100311.56;;;6.97;100.00
35551;BME280;21655;46.056;13.616;2023-03-23T04:24:20;100314.63;;;6.94;100.00
35551;BME280;21655;46.056;13.616;2023-03-23T04:26:47;100312.91;;;6.93;100.00
35551;BME280;21655;46.056;13.616;2023-03-23T04:29:12;100315.81;;;6.91;100.00
35551;BME280;21655;46.056;13.616;2023-03-23T04:31:38;100311.66;;;7.05;100.00
35551;BME280;21655;46.056;13.616;2023-03-23T04:34:05;100311.31;;;7.08;100.00
35551;BME280;21655;46.056;13.616;2023-03-23T04:36:30;100306.97;;;7.05;100.00
35551;BME280;21655;46.056;13.616;2023-03-23T04:38:59;100313.84;;;7.01;100.00
35551;BME280;21655;46.056;13.616;2023-03-23T04:41:25;100315.09;;;6.89;100.00
35551;BME280;21655;46.056;13.616;2023-03-23T04:43:52;100320.78;;;6.88;100.00
35551;BME280;21655;46.056;13.616;2023-03-23T04:46:19;100323.13;;;6.83;100.00
35551;BME280;21655;46.056;13.616;2023-03-23T04:48:46;100316.78;;;6.82;100.00
35551;BME280;21655;46.056;13.616;2023-03-23T04:51:12;100317.72;;;6.73;100.00
35551;BME280;21655;46.056;13.616;2023-03-23T04:53:39;100313.78;;;6.76;100.00
35551;BME280;21655;46.056;13.616;2023-03-23T04:56:04;100327.16;;;6.71;100.00
35551;BME280;21655;46.056;13.616;2023-03-23T04:58:30;100324.25;;;6.72;100.00
35551;BME280;21655;46.056;13.616;2023-03-23T05:00:59;100328.72;;;6.73;100.00
35551;BME280;21655;46.056;13.616;2023-03-23T05:03:25;100327.78;;;6.82;100.00
35551;BME280;21655;46.056;13.616;2023-03-23T05:05:52;100324.72;;;6.85;100.00
35551;BME280;21655;46.056;13.616;2023-03-23T05:08:22;100334.34;;;6.81;100.00
35551;BME280;21655;46.056;13.616;2023-03-23T05:10:53;100325.28;;;6.89;100.00
35551;BME280;21655;46.056;13.616;2023-03-23T05:13:19;100324.97;;;6.92;100.00
35551;BME280;21655;46.056;13.616;2023-03-23T05:15:45;100328.03;;;6.89;100.00
35551;BME280;21655;46.056;13.616;2023-03-23T05:18:11;100338.19;;;6.88;100.00
35551;BME280;21655;46.056;13.616;2023-03-23T05:20:36;100336.91;;;6.83;100.00
35551;BME280;21655;46.056;13.616;2023-03-23T05:23:02;100331.72;;;6.80;100.00
35551;BME280;21655;46.056;13.616;2023-03-23T05:25:28;100342.66;;;6.89;100.00
35551;BME280;21655;46.056;13.616;2023-03-23T05:27:53;100338.97;;;6.98;100.00
35551;BME280;21655;46.056;13.616;2023-03-23T05:30:20;100346.50;;;7.14;100.00
35551;BME280;21655;46.056;13.616;2023-03-23T05:32:47;100350.91;;;7.24;100.00
35551;BME280;21655;46.056;13.616;2023-03-23T05:35:16;100343.97;;;7.38;100.00
35551;BME280;21655;46.056;13.616;2023-03-23T05:37:42;100361.59;;;7.44;100.00
35551;BME280;21655;46.056;13.616;2023-03-23T05:40:09;100363.31;;;7.45;100.00
35551;BME280;21655;46.056;13.616;2023-03-23T05:42:37;100365.69;;;7.58;100.00
35551;BME280;21655;46.056;13.616;2023-03-23T05:45:04;100367.69;;;7.73;100.00
35551;BME280;21655;46.056;13.616;2023-03-23T05:47:30;100367.09;;;7.87;100.00
35551;BME280;21655;46.056;13.616;2023-03-23T05:49:56;100371.50;;;8.06;100.00
35551;BME280;21655;46.056;13.616;2023-03-23T05:52:21;100369.38;;;8.25;100.00
35551;BME280;21655;46.056;13.616;2023-03-23T05:54:49;100372.91;;;8.35;100.00
35551;BME280;21655;46.056;13.616;2023-03-23T05:57:15;100377.25;;;8.46;100.00
35551;BME280;21655;46.056;13.616;2023-03-23T05:59:41;100369.72;;;8.64;100.00
35551;BME280;21655;46.056;13.616;2023-03-23T06:02:06;100382.16;;;8.60;100.00
35551;BME280;21655;46.056;13.616;2023-03-23T06:04:32;100374.59;;;8.78;100.00
35551;BME280;21655;46.056;13.616;2023-03-23T06:07:00;100375.69;;;9.01;100.00
35551;BME280;21655;46.056;13.616;2023-03-23T06:09:25;100386.94;;;9.07;100.00
35551;BME280;21655;46.056;13.616;2023-03-23T06:11:51;100379.16;;;9.11;100.00
35551;BME280;21655;46.056;13.616;2023-03-23T06:14:17;100374.53;;;9.67;100.00
35551;BME280;21655;46.056;13.616;2023-03-23T06:16:43;100377.59;;;9.88;100.00
35551;BME280;21655;46.056;13.616;2023-03-23T06:19:08;100382.25;;;10.03;100.00
35551;BME280;21655;46.056;13.616;2023-03-23T06:21:34;100382.69;;;10.47;100.00
35551;BME280;21655;46.056;13.616;2023-03-23T06:24:00;100387.13;;;10.86;100.00
35551;BME280;21655;46.056;13.616;2023-03-23T06:26:30;100379.88;;;11.16;100.00
35551;BME280;21655;46.056;13.616;2023-03-23T06:28:58;100378.38;;;11.05;100.00
35551;BME280;21655;46.056;13.616;2023-03-23T06:31:24;100378.19;;;11.07;100.00
35551;BME280;21655;46.056;13.616;2023-03-23T06:33:51;100386.66;;;11.13;100.00
35551;BME280;21655;46.056;13.616;2023-03-23T06:36:17;100380.69;;;11.24;100.00
35551;BME280;21655;46.056;13.616;2023-03-23T06:38:43;100385.97;;;11.11;100.00
35551;BME280;21655;46.056;13.616;2023-03-23T06:41:08;100389.16;;;10.62;100.00
35551;BME280;21655;46.056;13.616;2023-03-23T06:43:34;100387.34;;;10.85;100.00
35551;BME280;21655;46.056;13.616;2023-03-23T06:46:01;100389.69;;;10.65;100.00
35551;BME280;21655;46.056;13.616;2023-03-23T06:48:27;100385.31;;;10.71;100.00
35551;BME280;21655;46.056;13.616;2023-03-23T06:50:52;100385.38;;;10.63;100.00
35551;BME280;21655;46.056;13.616;2023-03-23T06:53:18;100385.00;;;10.66;100.00
35551;BME280;21655;46.056;13.616;2023-03-23T06:55:45;100380.06;;;10.84;100.00
35551;BME280;21655;46.056;13.616;2023-03-23T06:58:11;100395.13;;;10.89;100.00
35551;BME280;21655;46.056;13.616;2023-03-23T07:00:37;100386.81;;;11.12;100.00
35551;BME280;21655;46.056;13.616;2023-03-23T07:03:02;100388.63;;;11.27;100.00
35551;BME280;21655;46.056;13.616;2023-03-23T07:05:29;100394.50;;;11.54;100.00
35551;BME280;21655;46.056;13.616;2023-03-23T07:07:55;100395.41;;;11.47;100.00
35551;BME280;21655;46.056;13.616;2023-03-23T07:10:20;100401.19;;;11.45;100.00
35551;BME280;21655;46.056;13.616;2023-03-23T07:12:46;100394.22;;;11.72;100.00
35551;BME280;21655;46.056;13.616;2023-03-23T07:15:11;100394.97;;;12.03;100.00
35551;BME280;21655;46.056;13.616;2023-03-23T07:17:38;100405.44;;;12.15;100.00
35551;BME280;21655;46.056;13.616;2023-03-23T07:20:05;100392.41;;;12.30;100.00
35551;BME280;21655;46.056;13.616;2023-03-23T07:22:31;100406.09;;;12.32;100.00
35551;BME280;21655;46.056;13.616;2023-03-23T07:24:56;100401.31;;;12.98;100.00
35551;BME280;21655;46.056;13.616;2023-03-23T07:27:22;100398.59;;;13.19;100.00
35551;BME280;21655;46.056;13.616;2023-03-23T07:29:48;100396.44;;;13.35;100.00
35551;BME280;21655;46.056;13.616;2023-03-23T07:32:14;100394.16;;;13.66;100.00
35551;BME280;21655;46.056;13.616;2023-03-23T07:34:39;100388.59;;;13.87;100.00
35551;BME280;21655;46.056;13.616;2023-03-23T07:37:06;100389.47;;;14.70;100.00
35551;BME280;21655;46.056;13.616;2023-03-23T07:39:32;100386.25;;;14.39;100.00
35551;BME280;21655;46.056;13.616;2023-03-23T07:41:58;100388.81;;;14.68;100.00
35551;BME280;21655;46.056;13.616;2023-03-23T07:44:24;100385.06;;;15.42;100.00
35551;BME280;21655;46.056;13.616;2023-03-23T07:46:50;100381.75;;;15.19;100.00
35551;BME280;21655;46.056;13.616;2023-03-23T07:49:16;100384.50;;;16.31;100.00
35551;BME280;21655;46.056;13.616;2023-03-23T07:51:43;100385.59;;;16.17;100.00
35551;BME280;21655;46.056;13.616;2023-03-23T07:54:08;100386.22;;;15.80;100.00
35551;BME280;21655;46.056;13.616;2023-03-23T07:56:34;100382.78;;;16.30;100.00
35551;BME280;21655;46.056;13.616;2023-03-23T07:59:01;100388.19;;;16.57;100.00
35551;BME280;21655;46.056;13.616;2023-03-23T08:01:28;100385.53;;;16.82;100.00
35551;BME280;21655;46.056;13.616;2023-03-23T08:03:54;100381.72;;;16.57;100.00
35551;BME280;21655;46.056;13.616;2023-03-23T08:06:23;100381.28;;;16.14;100.00
35551;BME280;21655;46.056;13.616;2023-03-23T08:08:48;100385.91;;;15.29;100.00
35551;BME280;21655;46.056;13.616;2023-03-23T08:11:15;100387.69;;;15.69;100.00
35551;BME280;21655;46.056;13.616;2023-03-23T08:13:41;100373.47;;;15.45;100.00
35551;BME280;21655;46.056;13.616;2023-03-23T08:16:08;100384.41;;;15.33;100.00
35551;BME280;21655;46.056;13.616;2023-03-23T08:18:34;100375.25;;;15.98;100.00
35551;BME280;21655;46.056;13.616;2023-03-23T08:21:00;100375.91;;;16.13;100.00
35551;BME280;21655;46.056;13.616;2023-03-23T08:23:26;100383.72;;;17.06;100.00
35551;BME280;21655;46.056;13.616;2023-03-23T08:25:51;100378.97;;;17.13;100.00
35551;BME280;21655;46.056;13.616;2023-03-23T08:28:16;100372.22;;;17.21;100.00
35551;BME280;21655;46.056;13.616;2023-03-23T08:30:42;100369.38;;;17.27;100.00
35551;BME280;21655;46.056;13.616;2023-03-23T08:33:08;100372.81;;;17.36;100.00
35551;BME280;21655;46.056;13.616;2023-03-23T08:35:36;100365.66;;;17.77;100.00
35551;BME280;21655;46.056;13.616;2023-03-23T08:38:02;100360.22;;;18.13;100.00
35551;BME280;21655;46.056;13.616;2023-03-23T08:40:28;100363.81;;;18.20;100.00
35551;BME280;21655;46.056;13.616;2023-03-23T08:42:54;100357.22;;;18.75;100.00
35551;BME280;21655;46.056;13.616;2023-03-23T08:45:22;100365.59;;;18.82;100.00
35551;BME280;21655;46.056;13.616;2023-03-23T08:47:48;100358.88;;;18.83;100.00
35551;BME280;21655;46.056;13.616;2023-03-23T08:50:19;100351.38;;;20.88;100.00
35551;BME280;21655;46.056;13.616;2023-03-23T08:52:45;100351.53;;;20.93;88.90
35551;BME280;21655;46.056;13.616;2023-03-23T08:55:11;100352.59;;;20.92;87.65
35551;BME280;21655;46.056;13.616;2023-03-23T08:57:37;100346.84;;;20.29;84.35
35551;BME280;21655;46.056;13.616;2023-03-23T09:00:05;100347.94;;;20.28;86.61
35551;BME280;21655;46.056;13.616;2023-03-23T09:02:41;100342.91;;;20.30;96.03
35551;BME280;21655;46.056;13.616;2023-03-23T09:05:08;100348.97;;;19.63;99.87
35551;BME280;21655;46.056;13.616;2023-03-23T09:07:35;100339.13;;;19.25;100.00
35551;BME280;21655;46.056;13.616;2023-03-23T09:10:01;100341.19;;;19.47;100.00
35551;BME280;21655;46.056;13.616;2023-03-23T09:12:27;100349.53;;;20.82;94.23
35551;BME280;21655;46.056;13.616;2023-03-23T09:14:53;100343.16;;;20.75;85.46
35551;BME280;21655;46.056;13.616;2023-03-23T09:17:18;100337.66;;;19.52;92.81
35551;BME280;21655;46.056;13.616;2023-03-23T09:19:44;100343.47;;;19.68;100.00
35551;BME280;21655;46.056;13.616;2023-03-23T09:22:09;100338.75;;;19.80;99.91
35551;BME280;21655;46.056;13.616;2023-03-23T09:24:34;100343.28;;;20.45;97.89
35551;BME280;21655;46.056;13.616;2023-03-23T09:27:00;100338.38;;;21.09;84.93
35551;BME280;21655;46.056;13.616;2023-03-23T09:29:26;100335.03;;;22.24;77.06
35551;BME280;21655;46.056;13.616;2023-03-23T09:31:53;100337.63;;;22.42;68.42
35551;BME280;21655;46.056;13.616;2023-03-23T09:34:19;100326.16;;;23.24;63.94
35551;BME280;21655;46.056;13.616;2023-03-23T09:36:45;100328.69;;;23.47;59.38
35551;BME280;21655;46.056;13.616;2023-03-23T09:39:11;100337.47;;;25.29;53.14
35551;BME280;21655;46.056;13.616;2023-03-23T09:41:54;100329.41;;;25.16;52.81
35551;BME280;21655;46.056;13.616;2023-03-23T09:47:13;100322.88;;;25.82;50.02
35551;BME280;21655;46.056;13.616;2023-03-23T09:49:50;100321.94;;;27.56;46.87
35551;BME280;21655;46.056;13.616;2023-03-23T09:52:18;100319.53;;;27.05;46.21
35551;BME280;21655;46.056;13.616;2023-03-23T09:54:49;100311.06;;;26.40;48.11
35551;BME280;21655;46.056;13.616;2023-03-23T10:05:48;100303.41;;;28.07;43.29
35551;BME280;21655;46.056;13.616;2023-03-23T10:08:20;100296.53;;;26.42;43.79
35551;BME280;21655;46.056;13.616;2023-03-23T10:11:06;100303.38;;;25.24;43.64
35551;BME280;21655;46.056;13.616;2023-03-23T10:16:26;100296.00;;;22.92;49.75
35551;BME280;21655;46.056;13.616;2023-03-23T10:19:01;100296.94;;;23.19;50.01
35551;BME280;21655;46.056;13.616;2023-03-23T10:21:29;100301.13;;;23.38;48.81
35551;BME280;21655;46.056;13.616;2023-03-23T10:26:57;100285.13;;;23.05;49.36
35551;BME280;21655;46.056;13.616;2023-03-23T10:29:35;100286.91;;;21.58;53.57
35551;BME280;21655;46.056;13.616;2023-03-23T10:32:09;100300.03;;;20.74;56.11
35551;BME280;21655;46.056;13.616;2023-03-23T10:37:25;100284.03;;;19.65;64.85
35551;BME280;21655;46.056;13.616;2023-03-23T10:40:00;100296.59;;;19.62;68.50
35551;BME280;21655;46.056;13.616;2023-03-23T10:42:30;100285.22;;;19.57;69.11
35551;BME280;21655;46.056;13.616;2023-03-23T10:44:59;100293.66;;;19.57;72.23
35551;BME280;21655;46.056;13.616;2023-03-23T10:47:25;100278.09;;;19.43;70.23
35551;BME280;21655;46.056;13.616;2023-03-23T10:49:57;100290.72;;;19.52;72.34
35551;BME280;21655;46.056;13.616;2023-03-23T10:52:36;100291.91;;;19.86;70.17
35551;BME280;21655;46.056;13.616;2023-03-23T10:55:17;100294.44;;;19.76;69.38
35551;BME280;21655;46.056;13.616;2023-03-23T10:57:46;100298.50;;;19.80;67.61
35551;BME280;21655;46.056;13.616;2023-03-23T11:00:22;100288.19;;;20.26;66.14
35551;BME280;21655;46.056;13.616;2023-03-23T11:03:23;100295.63;;;20.09;67.23
35551;BME280;21655;46.056;13.616;2023-03-23T11:05:53;100295.03;;;20.07;67.23
35551;BME280;21655;46.056;13.616;2023-03-23T11:08:24;100298.16;;;19.99;67.60
35551;BME280;21655;46.056;13.616;2023-03-23T11:10:57;100284.13;;;20.34;66.03
35551;BME280;21655;46.056;13.616;2023-03-23T11:13:29;100289.50;;;20.70;62.46
35551;BME280;21655;46.056;13.616;2023-03-23T11:15:55;100280.97;;;21.43;59.89
35551;BME280;21655;46.056;13.616;2023-03-23T11:18:22;100291.72;;;20.56;60.14
35551;BME280;21655;46.056;13.616;2023-03-23T11:20:55;100286.22;;;20.84;61.37
35551;BME280;21655;46.056;13.616;2023-03-23T11:23:28;100292.34;;;20.47;62.69
35551;BME280;21655;46.056;13.616;2023-03-23T11:26:18;100297.09;;;20.58;62.29
35551;BME280;21655;46.056;13.616;2023-03-23T11:31:43;100302.31;;;21.11;61.84
35551;BME280;21655;46.056;13.616;2023-03-23T11:34:20;100295.47;;;21.35;60.10
35551;BME280;21655;46.056;13.616;2023-03-23T11:36:52;100293.13;;;22.54;54.80
35551;BME280;21655;46.056;13.616;2023-03-23T11:39:31;100291.94;;;22.17;55.94
35551;BME280;21655;46.056;13.616;2023-03-23T11:41:59;100295.47;;;22.24;55.27
35551;BME280;21655;46.056;13.616;2023-03-23T11:44:34;100296.94;;;22.43;56.00
35551;BME280;21655;46.056;13.616;2023-03-23T11:47:32;100285.38;;;22.28;56.52
35551;BME280;21655;46.056;13.616;2023-03-23T11:52:40;100286.06;;;22.73;53.12
35551;BME280;21655;46.056;13.616;2023-03-23T11:55:22;100273.34;;;22.92;53.63
35551;BME280;21655;46.056;13.616;2023-03-23T11:57:48;100271.81;;;23.49;50.99
35551;BME280;21655;46.056;13.616;2023-03-23T12:00:16;100277.69;;;23.21;50.96
35551;BME280;21655;46.056;13.616;2023-03-23T12:05:56;100266.38;;;23.95;47.77
35551;BME280;21655;46.056;13.616;2023-03-23T12:13:35;100253.00;;;25.00;43.32
35551;BME280;21655;46.056;13.616;2023-03-23T12:19:27;100245.72;;;25.19;44.46
35551;BME280;21655;46.056;13.616;2023-03-23T12:29:50;100235.84;;;22.80;46.87
35551;BME280;21655;46.056;13.616;2023-03-23T12:32:56;100235.84;;;22.80;45.04
35551;BME280;21655;46.056;13.616;2023-03-23T12:35:34;100236.44;;;22.28;46.59
35551;BME280;21655;46.056;13.616;2023-03-23T12:38:20;100224.19;;;22.98;45.42
35551;BME280;21655;46.056;13.616;2023-03-23T12:43:30;100229.00;;;22.38;47.06
35551;BME280;21655;46.056;13.616;2023-03-23T12:48:57;100214.47;;;21.64;46.95
35551;BME280;21655;46.056;13.616;2023-03-23T12:51:55;100224.09;;;22.67;46.34
35551;BME280;21655;46.056;13.616;2023-03-23T12:54:29;100212.00;;;23.40;45.95
35551;BME280;21655;46.056;13.616;2023-03-23T12:59:34;100196.78;;;22.77;46.49
35551;BME280;21655;46.056;13.616;2023-03-23T13:02:14;100199.66;;;22.23;46.75
35551;BME280;21655;46.056;13.616;2023-03-23T13:04:45;100192.84;;;22.57;45.92
35551;BME280;21655;46.056;13.616;2023-03-23T13:07:17;100205.47;;;23.13;45.43
35551;BME280;21655;46.056;13.616;2023-03-23T13:09:55;100200.28;;;23.58;44.04
35551;BME280;21655;46.056;13.616;2023-03-23T13:12:25;100198.47;;;24.05;43.71
35551;BME280;21655;46.056;13.616;2023-03-23T13:28:33;100197.38;;;22.58;45.71
35551;BME280;21655;46.056;13.616;2023-03-23T13:34:23;100202.19;;;22.57;47.06
35551;BME280;21655;46.056;13.616;2023-03-23T13:39:22;100202.13;;;22.19;49.80
35551;BME280;21655;46.056;13.616;2023-03-23T13:42:03;100191.88;;;21.97;49.69
35551;BME280;21655;46.056;13.616;2023-03-23T13:49:55;100195.59;;;21.97;50.95
35551;BME280;21655;46.056;13.616;2023-03-23T13:52:36;100193.97;;;21.40;52.42
35551;BME280;21655;46.056;13.616;2023-03-23T13:55:13;100189.63;;;21.77;51.96
35551;BME280;21655;46.056;13.616;2023-03-23T13:57:55;100192.69;;;21.92;54.22
35551;BME280;21655;46.056;13.616;2023-03-23T14:02:51;100191.88;;;21.47;53.08
35551;BME280;21655;46.056;13.616;2023-03-23T14:10:37;100182.97;;;21.55;54.69
35551;BME280;21655;46.056;13.616;2023-03-23T14:13:04;100182.22;;;21.43;55.34
35551;BME280;21655;46.056;13.616;2023-03-23T14:15:36;100177.25;;;21.50;53.67
35551;BME280;21655;46.056;13.616;2023-03-23T14:18:03;100177.63;;;21.26;53.30
35551;BME280;21655;46.056;13.616;2023-03-23T14:20:33;100185.50;;;20.96;53.35
35551;BME280;21655;46.056;13.616;2023-03-23T14:22:59;100172.16;;;20.92;55.27
35551;BME280;21655;46.056;13.616;2023-03-23T14:25:31;100173.53;;;21.17;54.75
35551;BME280;21655;46.056;13.616;2023-03-23T14:27:57;100180.63;;;21.19;55.91
35551;BME280;21655;46.056;13.616;2023-03-23T14:30:24;100168.66;;;21.12;56.93
35551;BME280;21655;46.056;13.616;2023-03-23T14:32:51;100164.56;;;21.20;55.41
35551;BME280;21655;46.056;13.616;2023-03-23T14:35:24;100171.53;;;21.01;58.31
35551;BME280;21655;46.056;13.616;2023-03-23T14:37:51;100167.47;;;20.97;58.86
35551;BME280;21655;46.056;13.616;2023-03-23T14:40:17;100161.50;;;20.94;61.03